createdAt,value
2018-06-10T00:00:15.158Z,19.50
2018-06-10T00:05:17.732Z,19.50
2018-06-10T00:10:20.283Z,19.40
2018-06-10T00:15:22.821Z,19.40
2018-06-10T00:20:25.372Z,19.40
2018-06-10T00:25:27.905Z,19.30
2018-06-10T00:30:30.452Z,19.30
2018-06-10T00:35:33.090Z,19.30
2018-06-10T00:40:35.653Z,19.30
2018-06-10T00:45:38.198Z,19.20
2018-06-10T00:50:40.750Z,19.20
2018-06-10T00:55:43.274Z,19.10
2018-06-10T01:00:45.808Z,19.10
2018-06-10T01:10:54.429Z,19.00
2018-06-10T01:15:56.957Z,19.00
2018-06-10T01:20:59.494Z,18.90
2018-06-10T01:26:02.051Z,18.90
2018-06-10T01:31:04.589Z,18.90
2018-06-10T01:36:07.892Z,18.80
2018-06-10T01:41:10.452Z,18.70
2018-06-10T01:46:13.021Z,18.70
2018-06-10T01:51:15.557Z,18.70
2018-06-10T01:56:18.099Z,18.70
2018-06-10T02:01:20.656Z,18.60
2018-06-10T02:06:23.221Z,18.50
2018-06-10T02:11:25.748Z,18.50
2018-06-10T02:16:28.300Z,18.50
2018-06-10T02:21:30.865Z,18.40
2018-06-10T02:26:33.444Z,18.40
2018-06-10T02:31:36.089Z,18.30
2018-06-10T02:36:38.618Z,18.30
2018-06-10T02:41:41.190Z,18.30
2018-06-10T02:46:43.742Z,18.20
2018-06-10T02:51:46.295Z,18.20
2018-06-10T02:56:48.829Z,18.20
2018-06-10T03:01:51.373Z,18.10
2018-06-10T03:06:54.697Z,18.10
2018-06-10T03:11:57.243Z,18.00
2018-06-10T03:16:59.805Z,18.00
2018-06-10T03:22:02.365Z,17.90
2018-06-10T03:27:04.902Z,17.90
2018-06-10T03:32:07.427Z,17.90
2018-06-10T03:37:09.974Z,17.90
2018-06-10T03:42:12.729Z,17.80
2018-06-10T03:47:15.261Z,17.80
2018-06-10T03:52:17.797Z,17.70
2018-06-10T03:57:20.337Z,17.70
2018-06-10T04:02:22.877Z,17.70
2018-06-10T04:07:25.423Z,17.70
2018-06-10T04:12:27.952Z,17.70
2018-06-10T04:17:30.495Z,17.70
2018-06-10T04:22:33.070Z,17.70
2018-06-10T04:27:35.561Z,17.70
2018-06-10T04:32:38.096Z,17.70
2018-06-10T04:37:40.632Z,17.80
2018-06-10T04:42:43.184Z,17.80
2018-06-10T04:47:45.712Z,17.90
2018-06-10T04:52:48.261Z,17.90
2018-06-10T04:57:50.805Z,18.00
2018-06-10T05:02:53.366Z,18.10
2018-06-10T05:07:55.910Z,18.10
2018-06-10T05:12:58.444Z,18.30
2018-06-10T05:18:01.006Z,18.40
2018-06-10T05:23:04.336Z,18.60
2018-06-10T05:28:06.865Z,18.60
2018-06-10T05:33:09.513Z,18.70
2018-06-10T05:38:12.058Z,19.00
2018-06-10T05:43:14.616Z,19.20
2018-06-10T05:48:17.145Z,19.40
2018-06-10T05:53:19.705Z,19.70
2018-06-10T05:58:22.249Z,20.00
2018-06-10T06:03:24.783Z,20.30
2018-06-10T06:08:27.321Z,20.60
2018-06-10T06:13:30.670Z,21.10
2018-06-10T06:18:33.220Z,21.10
2018-06-10T06:23:35.828Z,21.40
2018-06-10T06:28:38.668Z,21.70
2018-06-10T06:33:41.200Z,21.90
2018-06-10T06:38:43.742Z,22.10
2018-06-10T06:43:47.125Z,22.60
2018-06-10T06:48:49.684Z,22.50
2018-06-10T06:53:52.218Z,22.80
2018-06-10T06:58:54.853Z,23.00
2018-06-10T07:03:57.464Z,23.30
2018-06-10T07:09:00.773Z,23.60
2018-06-10T07:14:03.302Z,23.60
2018-06-10T07:19:05.868Z,23.90
2018-06-10T07:24:09.202Z,24.50
2018-06-10T07:29:11.750Z,24.50
2018-06-10T07:34:14.308Z,24.70
2018-06-10T07:39:16.842Z,25.00
2018-06-10T07:44:19.404Z,25.30
2018-06-10T07:49:21.936Z,25.50
2018-06-10T07:54:24.470Z,25.80
2018-06-10T07:59:27.011Z,26.10
2018-06-10T08:04:29.545Z,26.40
2018-06-10T08:09:32.101Z,26.50
2018-06-10T08:14:35.385Z,26.90
2018-06-10T08:19:37.958Z,26.90
2018-06-10T08:24:40.497Z,27.00
2018-06-10T08:29:43.048Z,27.10
2018-06-10T08:34:45.606Z,27.10
2018-06-10T08:39:48.166Z,27.10
2018-06-10T08:44:50.833Z,27.10
2018-06-10T08:49:53.368Z,27.00
2018-06-10T08:54:55.973Z,27.00
2018-06-10T08:59:58.546Z,27.10
2018-06-10T09:05:01.215Z,27.30
2018-06-10T09:10:03.758Z,27.40
2018-06-10T09:15:06.329Z,27.50
2018-06-10T09:20:08.884Z,27.60
2018-06-10T09:25:11.409Z,27.60
2018-06-10T09:30:14.706Z,27.60
2018-06-10T09:35:17.315Z,27.60
2018-06-10T09:40:20.628Z,27.80
2018-06-10T09:45:23.193Z,27.80
2018-06-10T09:50:25.752Z,28.10
2018-06-10T09:55:29.225Z,28.50
2018-06-10T10:00:31.628Z,28.50
2018-06-10T10:05:34.194Z,28.80
2018-06-10T10:10:36.760Z,29.20
2018-06-10T10:15:39.345Z,29.50
2018-06-10T10:20:41.917Z,29.80
2018-06-10T10:25:44.582Z,30.10
2018-06-10T10:30:47.126Z,30.30
2018-06-10T10:35:50.311Z,30.60
2018-06-10T10:40:52.835Z,30.80
2018-06-10T10:45:55.427Z,31.00
2018-06-10T10:50:57.979Z,31.20
2018-06-10T10:56:00.558Z,31.30
2018-06-10T11:01:03.096Z,31.20
2018-06-10T11:06:05.962Z,31.30
2018-06-10T11:11:08.531Z,31.40
2018-06-10T11:16:11.080Z,31.40
2018-06-10T11:21:13.624Z,31.50
2018-06-10T11:26:16.166Z,31.70
2018-06-10T11:31:18.701Z,31.90
2018-06-10T11:36:21.253Z,32.00
2018-06-10T11:41:23.791Z,32.30
2018-06-10T11:46:26.353Z,32.40
2018-06-10T11:51:28.882Z,32.50
2018-06-10T11:56:32.255Z,32.60
2018-06-10T12:01:34.798Z,32.60
2018-06-10T12:06:38.109Z,32.80
2018-06-10T12:11:40.656Z,32.80
2018-06-10T12:16:43.286Z,32.80
2018-06-10T12:21:45.828Z,33.00
2018-06-10T12:26:48.362Z,33.10
2018-06-10T12:31:50.901Z,33.20
2018-06-10T12:36:53.445Z,33.20
2018-06-10T12:41:55.982Z,33.30
2018-06-10T12:46:58.544Z,33.20
2018-06-10T12:52:01.077Z,33.20
2018-06-10T12:57:03.652Z,33.10
2018-06-10T13:02:07.157Z,33.00
2018-06-10T13:07:10.240Z,33.00
2018-06-10T13:12:13.785Z,32.80
2018-06-10T13:17:16.329Z,32.70
2018-06-10T13:22:18.869Z,32.70
2018-06-10T13:27:22.196Z,32.50
2018-06-10T13:32:24.749Z,32.50
2018-06-10T13:37:27.309Z,32.50
2018-06-10T13:42:29.844Z,32.50
2018-06-10T13:47:33.219Z,32.50
2018-06-10T13:52:35.753Z,32.60
2018-06-10T13:57:38.307Z,32.70
2018-06-10T14:02:40.924Z,32.70
2018-06-10T14:07:43.452Z,32.70
2018-06-10T14:12:46.018Z,32.50
2018-06-10T14:17:48.556Z,32.50
2018-06-10T14:22:51.108Z,32.60
2018-06-10T14:27:53.651Z,32.60
2018-06-10T14:32:56.200Z,32.60
2018-06-10T14:37:58.838Z,32.50
2018-06-10T14:43:02.361Z,32.40
2018-06-10T14:48:04.968Z,32.40
2018-06-10T14:53:07.488Z,32.40
2018-06-10T14:58:10.032Z,32.30
2018-06-10T15:03:12.582Z,32.30
2018-06-10T15:08:15.113Z,32.30
2018-06-10T15:13:17.674Z,32.20
2018-06-10T15:18:20.237Z,32.20
2018-06-10T15:23:22.789Z,32.20
2018-06-10T15:28:25.325Z,32.00
2018-06-10T15:33:27.865Z,32.00
2018-06-10T15:38:30.429Z,32.00
2018-06-10T15:43:33.737Z,32.00
2018-06-10T15:48:38.128Z,32.00
2018-06-10T15:53:40.665Z,32.00
2018-06-10T15:58:43.197Z,32.00
2018-06-10T16:03:45.737Z,31.90
2018-06-10T16:08:48.275Z,31.80
2018-06-10T16:13:50.810Z,31.70
2018-06-10T16:18:53.345Z,31.70
2018-06-10T16:23:55.881Z,31.50
2018-06-10T16:28:58.466Z,31.40
2018-06-10T16:34:01.798Z,31.10
2018-06-10T16:39:05.097Z,31.00
2018-06-10T16:44:08.413Z,30.80
2018-06-10T16:49:11.034Z,30.80
2018-06-10T16:54:13.553Z,30.70
2018-06-10T16:59:16.081Z,30.50
2018-06-10T17:04:18.676Z,30.40
2018-06-10T17:09:21.649Z,30.30
2018-06-10T17:14:24.214Z,30.10
2018-06-10T17:19:26.824Z,30.10
2018-06-10T17:24:30.172Z,29.90
2018-06-10T17:29:32.681Z,29.90
2018-06-10T17:34:35.295Z,29.80
2018-06-10T17:39:37.835Z,29.70
2018-06-10T17:44:40.369Z,29.60
2018-06-10T17:49:42.933Z,29.40
2018-06-10T17:54:45.469Z,29.30
2018-06-10T17:59:48.012Z,29.20
2018-06-10T18:04:50.578Z,29.10
2018-06-10T18:09:53.114Z,29.00
2018-06-10T18:14:55.756Z,28.80
2018-06-10T18:25:08.348Z,28.60
2018-06-10T18:30:10.892Z,28.40
2018-06-10T18:35:13.435Z,28.30
2018-06-10T18:40:15.979Z,28.10
2018-06-10T18:45:18.507Z,28.00
2018-06-10T18:50:21.144Z,27.90
2018-06-10T18:55:24.608Z,27.60
2018-06-10T19:00:27.136Z,27.60
2018-06-10T19:05:29.712Z,27.50
2018-06-10T19:10:32.286Z,27.30
2018-06-10T19:15:34.821Z,27.20
2018-06-10T19:20:37.357Z,27.10
2018-06-10T19:25:39.889Z,27.00
2018-06-10T19:30:42.413Z,26.90
2018-06-10T19:35:44.943Z,26.70
2018-06-10T19:40:47.504Z,26.60
2018-06-10T19:45:50.188Z,26.50
2018-06-10T19:50:53.460Z,26.30
2018-06-10T19:55:56.017Z,26.30
2018-06-10T20:00:58.536Z,26.20
2018-06-10T20:06:01.096Z,26.10
2018-06-10T20:11:03.637Z,26.00
2018-06-10T20:16:06.172Z,25.90
2018-06-10T20:21:08.732Z,25.80
2018-06-10T20:26:11.261Z,25.70
2018-06-10T20:31:14.580Z,25.50
2018-06-10T20:36:17.865Z,25.50
2018-06-10T20:41:20.412Z,25.40
2018-06-10T20:46:23.049Z,25.40
2018-06-10T20:51:25.583Z,25.30
2018-06-10T20:56:28.116Z,25.20
2018-06-10T21:01:30.672Z,25.10
2018-06-10T21:06:33.188Z,25.00
2018-06-10T21:11:35.752Z,24.90
2018-06-10T21:16:38.301Z,24.80
2018-06-10T21:21:40.852Z,24.80
2018-06-10T21:26:43.379Z,24.60
2018-06-10T21:31:46.671Z,24.50
2018-06-10T21:36:49.215Z,24.50
2018-06-10T21:41:51.756Z,24.40
2018-06-10T21:46:54.312Z,24.30
2018-06-10T21:51:56.944Z,24.30
2018-06-10T21:56:59.469Z,24.20
2018-06-10T22:02:02.007Z,24.10
2018-06-10T22:07:04.540Z,24.00
2018-06-10T22:12:07.064Z,24.00
2018-06-10T22:17:09.592Z,23.90
2018-06-10T22:22:12.124Z,23.80
2018-06-10T22:27:14.675Z,23.80
2018-06-10T22:32:17.201Z,23.70
2018-06-10T22:37:19.727Z,23.60
2018-06-10T22:42:22.276Z,23.50
2018-06-10T22:47:25.586Z,23.40
2018-06-10T22:52:28.119Z,23.40
2018-06-10T22:57:30.684Z,23.30
2018-06-10T23:02:33.224Z,23.30
2018-06-10T23:07:35.743Z,23.20
2018-06-10T23:12:38.279Z,23.20
2018-06-10T23:17:41.572Z,23.00
2018-06-10T23:22:44.103Z,23.00
2018-06-10T23:27:46.665Z,22.90
2018-06-10T23:32:49.200Z,22.90
2018-06-10T23:37:51.731Z,22.80
2018-06-10T23:42:54.277Z,22.70
2018-06-10T23:47:56.807Z,22.70
2018-06-10T23:52:59.364Z,22.60
2018-06-10T23:58:02.101Z,22.60
